sensor_id;sensor_type;location;lat;lon;timestamp;pressure;altitude;pressure_sealevel;temperature;humidity
8051;BME280;4068;42.158;24.732;2023-03-15T00:01:05;98833.75;;;3.65;89.96
8051;BME280;4068;42.158;24.732;2023-03-15T00:03:31;98818.50;;;3.57;89.43
8051;BME280;4068;42.158;24.732;2023-03-15T00:06:02;98841.25;;;3.71;89.38
8051;BME280;4068;42.158;24.732;2023-03-15T00:08:27;98832.41;;;3.72;89.40
8051;BME280;4068;42.158;24.732;2023-03-15T00:10:53;98830.09;;;3.67;89.73
8051;BME280;4068;42.158;24.732;2023-03-15T00:13:18;98802.97;;;3.54;89.36
8051;BME280;4068;42.158;24.732;2023-03-15T00:15:49;98834.88;;;3.75;89.79
8051;BME280;4068;42.158;24.732;2023-03-15T00:18:16;98810.50;;;3.73;89.92
8051;BME280;4068;42.158;24.732;2023-03-15T00:20:42;98817.22;;;3.77;90.14
8051;BME280;4068;42.158;24.732;2023-03-15T00:23:08;98820.41;;;3.82;90.51
8051;BME280;4068;42.158;24.732;2023-03-15T00:25:33;98803.66;;;3.70;89.97
8051;BME280;4068;42.158;24.732;2023-03-15T00:27:59;98822.84;;;3.85;90.19
8051;BME280;4068;42.158;24.732;2023-03-15T00:30:24;98784.78;;;3.65;90.66
8051;BME280;4068;42.158;24.732;2023-03-15T00:32:51;98795.31;;;3.78;89.91
8051;BME280;4068;42.158;24.732;2023-03-15T00:35:18;98810.56;;;3.86;89.42
8051;BME280;4068;42.158;24.732;2023-03-15T00:37:43;98821.16;;;3.84;89.36
8051;BME280;4068;42.158;24.732;2023-03-15T00:40:09;98816.19;;;3.79;89.37
8051;BME280;4068;42.158;24.732;2023-03-15T00:42:36;98769.72;;;3.54;91.39
8051;BME280;4068;42.158;24.732;2023-03-15T00:45:02;98804.72;;;3.95;92.68
8051;BME280;4068;42.158;24.732;2023-03-15T00:47:27;98802.00;;;3.96;93.49
8051;BME280;4068;42.158;24.732;2023-03-15T00:49:53;98804.53;;;3.98;91.01
8051;BME280;4068;42.158;24.732;2023-03-15T00:52:18;98807.03;;;4.00;89.15
8051;BME280;4068;42.158;24.732;2023-03-15T00:54:53;98807.72;;;3.89;88.47
8051;BME280;4068;42.158;24.732;2023-03-15T00:57:19;98807.19;;;3.84;88.83
8051;BME280;4068;42.158;24.732;2023-03-15T00:59:45;98805.06;;;3.76;89.76
8051;BME280;4068;42.158;24.732;2023-03-15T01:02:10;98799.72;;;3.77;91.44
8051;BME280;4068;42.158;24.732;2023-03-15T01:04:36;98756.59;;;3.54;96.02
8051;BME280;4068;42.158;24.732;2023-03-15T01:07:02;98790.50;;;3.85;98.99
8051;BME280;4068;42.158;24.732;2023-03-15T01:09:28;98790.41;;;3.86;100.00
8051;BME280;4068;42.158;24.732;2023-03-15T01:11:56;98765.81;;;3.74;100.00
8051;BME280;4068;42.158;24.732;2023-03-15T01:14:21;98781.06;;;3.82;100.00
8051;BME280;4068;42.158;24.732;2023-03-15T01:16:46;98753.53;;;3.62;100.00
8051;BME280;4068;42.158;24.732;2023-03-15T01:19:12;98791.00;;;3.77;99.76
8051;BME280;4068;42.158;24.732;2023-03-15T01:21:37;98778.72;;;3.77;97.97
8051;BME280;4068;42.158;24.732;2023-03-15T01:24:03;98788.69;;;3.72;96.19
8051;BME280;4068;42.158;24.732;2023-03-15T01:26:28;98792.44;;;3.68;94.20
8051;BME280;4068;42.158;24.732;2023-03-15T01:28:54;98786.22;;;3.56;94.20
8051;BME280;4068;42.158;24.732;2023-03-15T01:31:26;98784.75;;;3.38;94.06
8051;BME280;4068;42.158;24.732;2023-03-15T01:33:52;98776.53;;;3.30;94.44
8051;BME280;4068;42.158;24.732;2023-03-15T01:36:18;98765.97;;;3.17;94.81
8051;BME280;4068;42.158;24.732;2023-03-15T01:38:44;98747.28;;;2.94;95.46
8051;BME280;4068;42.158;24.732;2023-03-15T01:41:13;98758.59;;;2.94;95.77
8051;BME280;4068;42.158;24.732;2023-03-15T01:43:39;98766.81;;;2.88;96.38
8051;BME280;4068;42.158;24.732;2023-03-15T01:46:47;98771.31;;;2.86;96.86
8051;BME280;4068;42.158;24.732;2023-03-15T01:49:10;98766.34;;;2.82;97.19
8051;BME280;4068;42.158;24.732;2023-03-15T01:51:44;98766.75;;;2.75;97.58
8051;BME280;4068;42.158;24.732;2023-03-15T01:54:28;98764.31;;;2.72;98.24
8051;BME280;4068;42.158;24.732;2023-03-15T01:57:03;98766.44;;;2.66;98.86
8051;BME280;4068;42.158;24.732;2023-03-15T01:59:36;98762.78;;;2.54;99.51
8051;BME280;4068;42.158;24.732;2023-03-15T02:02:04;98734.72;;;2.27;100.00
8051;BME280;4068;42.158;24.732;2023-03-15T02:04:37;98761.28;;;2.35;100.00
8051;BME280;4068;42.158;24.732;2023-03-15T02:07:03;98741.53;;;2.15;100.00
8051;BME280;4068;42.158;24.732;2023-03-15T02:10:32;98756.06;;;2.19;100.00
8051;BME280;4068;42.158;24.732;2023-03-15T02:12:44;98757.22;;;2.15;100.00
8051;BME280;4068;42.158;24.732;2023-03-15T02:15:11;98751.59;;;2.07;100.00
8051;BME280;4068;42.158;24.732;2023-03-15T02:17:42;98743.59;;;1.94;100.00
8051;BME280;4068;42.158;24.732;2023-03-15T02:20:22;98760.72;;;2.00;100.00
8051;BME280;4068;42.158;24.732;2023-03-15T02:22:59;98740.13;;;1.94;100.00
8051;BME280;4068;42.158;24.732;2023-03-15T02:25:48;98738.88;;;1.85;100.00
8051;BME280;4068;42.158;24.732;2023-03-15T02:28:19;98737.75;;;1.75;100.00
8051;BME280;4068;42.158;24.732;2023-03-15T02:30:45;98739.63;;;1.72;100.00
8051;BME280;4068;42.158;24.732;2023-03-15T02:33:36;98744.25;;;1.67;100.00
8051;BME280;4068;42.158;24.732;2023-03-15T02:36:20;98741.03;;;1.62;100.00
8051;BME280;4068;42.158;24.732;2023-03-15T02:38:46;98730.03;;;1.57;100.00
8051;BME280;4068;42.158;24.732;2023-03-15T02:41:19;98734.84;;;1.49;100.00
8051;BME280;4068;42.158;24.732;2023-03-15T02:43:47;98736.19;;;1.40;100.00
8051;BME280;4068;42.158;24.732;2023-03-15T02:46:14;98741.25;;;1.43;100.00
8051;BME280;4068;42.158;24.732;2023-03-15T02:48:41;98722.63;;;1.33;100.00
8051;BME280;4068;42.158;24.732;2023-03-15T02:51:15;98738.81;;;1.40;100.00
8051;BME280;4068;42.158;24.732;2023-03-15T02:53:41;98723.44;;;1.34;100.00
8051;BME280;4068;42.158;24.732;2023-03-15T02:56:06;98736.28;;;1.38;100.00
8051;BME280;4068;42.158;24.732;2023-03-15T02:58:32;98725.50;;;1.29;100.00
8051;BME280;4068;42.158;24.732;2023-03-15T03:00:57;98679.91;;;1.02;100.00
8051;BME280;4068;42.158;24.732;2023-03-15T03:03:23;98722.97;;;1.27;100.00
8051;BME280;4068;42.158;24.732;2023-03-15T03:05:48;98720.44;;;1.26;100.00
8051;BME280;4068;42.158;24.732;2023-03-15T03:08:13;98716.13;;;1.25;100.00
8051;BME280;4068;42.158;24.732;2023-03-15T03:10:40;98718.75;;;1.25;100.00
8051;BME280;4068;42.158;24.732;2023-03-15T03:13:06;98682.44;;;1.04;100.00
8051;BME280;4068;42.158;24.732;2023-03-15T03:15:31;98722.19;;;1.25;100.00
8051;BME280;4068;42.158;24.732;2023-03-15T03:17:57;98724.25;;;1.20;100.00
8051;BME280;4068;42.158;24.732;2023-03-15T03:20:22;98717.22;;;1.20;100.00
8051;BME280;4068;42.158;24.732;2023-03-15T03:22:48;98716.50;;;1.18;100.00
8051;BME280;4068;42.158;24.732;2023-03-15T03:25:13;98718.06;;;1.21;100.00
8051;BME280;4068;42.158;24.732;2023-03-15T03:27:39;98696.69;;;1.14;100.00
8051;BME280;4068;42.158;24.732;2023-03-15T03:30:07;98698.22;;;1.18;100.00
8051;BME280;4068;42.158;24.732;2023-03-15T03:32:33;98699.88;;;1.19;100.00
8051;BME280;4068;42.158;24.732;2023-03-15T03:34:59;98715.22;;;1.26;100.00
8051;BME280;4068;42.158;24.732;2023-03-15T03:37:24;98708.81;;;1.31;100.00
8051;BME280;4068;42.158;24.732;2023-03-15T03:39:50;98705.44;;;1.29;100.00
8051;BME280;4068;42.158;24.732;2023-03-15T03:42:15;98692.09;;;1.34;100.00
8051;BME280;4068;42.158;24.732;2023-03-15T03:44:41;98676.94;;;1.41;100.00
8051;BME280;4068;42.158;24.732;2023-03-15T03:47:07;98694.69;;;1.66;100.00
8051;BME280;4068;42.158;24.732;2023-03-15T03:49:32;98691.75;;;1.86;100.00
8051;BME280;4068;42.158;24.732;2023-03-15T03:51:58;98675.44;;;1.97;100.00
8051;BME280;4068;42.158;24.732;2023-03-15T03:54:24;98654.13;;;2.03;100.00
8051;BME280;4068;42.158;24.732;2023-03-15T03:56:50;98696.97;;;2.31;100.00
8051;BME280;4068;42.158;24.732;2023-03-15T03:59:15;98696.50;;;2.39;100.00
8051;BME280;4068;42.158;24.732;2023-03-15T04:01:41;98710.91;;;2.46;100.00
8051;BME280;4068;42.158;24.732;2023-03-15T04:04:07;98719.41;;;2.50;100.00
8051;BME280;4068;42.158;24.732;2023-03-15T04:06:33;98718.31;;;2.54;100.00
8051;BME280;4068;42.158;24.732;2023-03-15T04:08:59;98710.44;;;2.54;100.00
8051;BME280;4068;42.158;24.732;2023-03-15T04:11:27;98705.31;;;2.52;100.00
8051;BME280;4068;42.158;24.732;2023-03-15T04:13:52;98700.34;;;2.48;100.00
8051;BME280;4068;42.158;24.732;2023-03-15T04:16:19;98698.28;;;2.53;100.00
8051;BME280;4068;42.158;24.732;2023-03-15T04:18:44;98710.25;;;2.57;100.00
8051;BME280;4068;42.158;24.732;2023-03-15T04:21:09;98715.41;;;2.58;100.00
8051;BME280;4068;42.158;24.732;2023-03-15T04:23:36;98677.16;;;2.27;100.00
8051;BME280;4068;42.158;24.732;2023-03-15T04:26:02;98684.00;;;2.30;100.00
8051;BME280;4068;42.158;24.732;2023-03-15T04:28:30;98685.38;;;2.21;100.00
8051;BME280;4068;42.158;24.732;2023-03-15T04:30:55;98686.50;;;2.17;100.00
8051;BME280;4068;42.158;24.732;2023-03-15T04:33:25;98683.03;;;2.16;100.00
8051;BME280;4068;42.158;24.732;2023-03-15T04:35:51;98682.47;;;2.11;100.00
8051;BME280;4068;42.158;24.732;2023-03-15T04:38:17;98687.69;;;2.11;100.00
8051;BME280;4068;42.158;24.732;2023-03-15T04:40:42;98698.72;;;2.16;100.00
8051;BME280;4068;42.158;24.732;2023-03-15T04:43:08;98667.97;;;2.05;100.00
8051;BME280;4068;42.158;24.732;2023-03-15T04:45:34;98678.28;;;2.23;100.00
8051;BME280;4068;42.158;24.732;2023-03-15T04:48:00;98706.59;;;2.45;100.00
8051;BME280;4068;42.158;24.732;2023-03-15T04:50:26;98709.97;;;2.62;100.00
8051;BME280;4068;42.158;24.732;2023-03-15T04:52:52;98663.59;;;2.49;100.00
8051;BME280;4068;42.158;24.732;2023-03-15T04:55:18;98661.25;;;2.59;100.00
8051;BME280;4068;42.158;24.732;2023-03-15T04:57:43;98705.56;;;2.91;100.00
8051;BME280;4068;42.158;24.732;2023-03-15T05:00:09;98703.59;;;2.94;100.00
8051;BME280;4068;42.158;24.732;2023-03-15T05:02:37;98711.25;;;2.98;100.00
8051;BME280;4068;42.158;24.732;2023-03-15T05:05:06;98720.78;;;2.99;100.00
8051;BME280;4068;42.158;24.732;2023-03-15T05:07:34;98702.16;;;3.03;100.00
8051;BME280;4068;42.158;24.732;2023-03-15T05:09:59;98709.91;;;3.05;100.00
8051;BME280;4068;42.158;24.732;2023-03-15T05:12:26;98662.16;;;2.87;100.00
8051;BME280;4068;42.158;24.732;2023-03-15T05:14:52;98707.88;;;3.10;100.00
8051;BME280;4068;42.158;24.732;2023-03-15T05:17:17;98715.22;;;3.18;100.00
8051;BME280;4068;42.158;24.732;2023-03-15T05:19:42;98700.50;;;3.02;100.00
8051;BME280;4068;42.158;24.732;2023-03-15T05:22:08;98718.34;;;3.10;100.00
8051;BME280;4068;42.158;24.732;2023-03-15T05:24:33;98698.75;;;2.88;100.00
8051;BME280;4068;42.158;24.732;2023-03-15T05:26:59;98716.38;;;2.99;100.00
8051;BME280;4068;42.158;24.732;2023-03-15T05:29:24;98678.53;;;2.76;100.00
8051;BME280;4068;42.158;24.732;2023-03-15T05:31:50;98717.34;;;2.98;100.00
8051;BME280;4068;42.158;24.732;2023-03-15T05:34:17;98711.53;;;2.93;100.00
8051;BME280;4068;42.158;24.732;2023-03-15T05:36:43;98709.75;;;2.93;100.00
8051;BME280;4068;42.158;24.732;2023-03-15T05:39:09;98706.50;;;2.90;100.00
8051;BME280;4068;42.158;24.732;2023-03-15T05:41:35;98686.50;;;2.74;100.00
8051;BME280;4068;42.158;24.732;2023-03-15T05:44:01;98705.47;;;2.92;100.00
8051;BME280;4068;42.158;24.732;2023-03-15T05:46:26;98700.34;;;2.91;100.00
8051;BME280;4068;42.158;24.732;2023-03-15T05:48:52;98702.84;;;2.92;100.00
8051;BME280;4068;42.158;24.732;2023-03-15T05:51:18;98662.09;;;2.74;100.00
8051;BME280;4068;42.158;24.732;2023-03-15T05:53:43;98659.94;;;2.66;100.00
8051;BME280;4068;42.158;24.732;2023-03-15T05:56:09;98664.81;;;2.72;100.00
8051;BME280;4068;42.158;24.732;2023-03-15T05:58:34;98662.38;;;2.69;100.00
8051;BME280;4068;42.158;24.732;2023-03-15T06:01:01;98680.47;;;3.01;100.00
8051;BME280;4068;42.158;24.732;2023-03-15T06:03:28;98701.97;;;3.21;100.00
8051;BME280;4068;42.158;24.732;2023-03-15T06:05:54;98694.69;;;3.39;100.00
8051;BME280;4068;42.158;24.732;2023-03-15T06:08:20;98700.53;;;3.57;100.00
8051;BME280;4068;42.158;24.732;2023-03-15T06:10:45;98698.38;;;3.76;100.00
8051;BME280;4068;42.158;24.732;2023-03-15T06:13:10;98705.06;;;4.21;100.00
8051;BME280;4068;42.158;24.732;2023-03-15T06:15:36;98668.72;;;4.40;100.00
8051;BME280;4068;42.158;24.732;2023-03-15T06:18:01;98689.47;;;4.95;100.00
8051;BME280;4068;42.158;24.732;2023-03-15T06:20:27;98673.56;;;5.09;100.00
8051;BME280;4068;42.158;24.732;2023-03-15T06:22:52;98710.41;;;5.58;100.00
8051;BME280;4068;42.158;24.732;2023-03-15T06:25:18;98706.84;;;5.70;100.00
8051;BME280;4068;42.158;24.732;2023-03-15T06:27:44;98710.25;;;6.08;98.05
8051;BME280;4068;42.158;24.732;2023-03-15T06:30:10;98701.78;;;6.27;95.14
8051;BME280;4068;42.158;24.732;2023-03-15T06:32:35;98706.91;;;6.17;94.55
8051;BME280;4068;42.158;24.732;2023-03-15T06:35:00;98706.03;;;6.63;94.42
8051;BME280;4068;42.158;24.732;2023-03-15T06:37:26;98694.66;;;6.74;91.57
8051;BME280;4068;42.158;24.732;2023-03-15T06:39:51;98712.28;;;6.85;90.12
8051;BME280;4068;42.158;24.732;2023-03-15T06:42:18;98710.13;;;6.90;90.85
8051;BME280;4068;42.158;24.732;2023-03-15T06:44:44;98706.97;;;7.07;88.77
8051;BME280;4068;42.158;24.732;2023-03-15T06:47:10;98698.31;;;7.17;89.22
8051;BME280;4068;42.158;24.732;2023-03-15T06:49:36;98704.44;;;7.29;86.01
8051;BME280;4068;42.158;24.732;2023-03-15T06:52:02;98717.53;;;7.07;86.53
8051;BME280;4068;42.158;24.732;2023-03-15T06:54:28;98699.91;;;6.85;87.55
8051;BME280;4068;42.158;24.732;2023-03-15T06:56:54;98705.31;;;6.84;89.16
8051;BME280;4068;42.158;24.732;2023-03-15T06:59:20;98713.72;;;6.78;89.24
8051;BME280;4068;42.158;24.732;2023-03-15T07:01:45;98704.84;;;6.79;90.19
8051;BME280;4068;42.158;24.732;2023-03-15T07:04:10;98691.56;;;6.69;88.86
8051;BME280;4068;42.158;24.732;2023-03-15T07:06:36;98696.81;;;7.03;88.56
8051;BME280;4068;42.158;24.732;2023-03-15T07:09:02;98659.16;;;7.01;87.98
8051;BME280;4068;42.158;24.732;2023-03-15T07:11:27;98691.34;;;7.38;85.82
8051;BME280;4068;42.158;24.732;2023-03-15T07:13:53;98692.06;;;7.40;85.65
8051;BME280;4068;42.158;24.732;2023-03-15T07:16:18;98680.94;;;7.37;84.93
8051;BME280;4068;42.158;24.732;2023-03-15T07:18:44;98694.94;;;7.37;84.71
8051;BME280;4068;42.158;24.732;2023-03-15T07:21:09;98684.63;;;7.46;84.22
8051;BME280;4068;42.158;24.732;2023-03-15T07:23:35;98660.06;;;7.22;85.39
8051;BME280;4068;42.158;24.732;2023-03-15T07:26:00;98693.81;;;7.63;84.35
8051;BME280;4068;42.158;24.732;2023-03-15T07:28:26;98690.69;;;7.57;85.74
8051;BME280;4068;42.158;24.732;2023-03-15T07:30:57;98676.75;;;7.67;84.57
8051;BME280;4068;42.158;24.732;2023-03-15T07:33:24;98682.28;;;7.85;83.93
8051;BME280;4068;42.158;24.732;2023-03-15T07:35:51;98672.59;;;7.85;83.52
8051;BME280;4068;42.158;24.732;2023-03-15T07:38:18;98671.91;;;7.72;84.35
8051;BME280;4068;42.158;24.732;2023-03-15T07:40:43;98667.72;;;7.69;84.26
8051;BME280;4068;42.158;24.732;2023-03-15T07:43:09;98641.59;;;7.66;83.35
8051;BME280;4068;42.158;24.732;2023-03-15T07:45:34;98653.31;;;7.73;82.59
8051;BME280;4068;42.158;24.732;2023-03-15T07:48:00;98678.91;;;7.94;82.40
8051;BME280;4068;42.158;24.732;2023-03-15T07:50:26;98663.03;;;7.73;83.64
8051;BME280;4068;42.158;24.732;2023-03-15T07:52:51;98673.81;;;7.81;85.20
8051;BME280;4068;42.158;24.732;2023-03-15T07:55:17;98670.66;;;7.87;84.26
8051;BME280;4068;42.158;24.732;2023-03-15T07:57:42;98656.16;;;8.03;82.11
8051;BME280;4068;42.158;24.732;2023-03-15T08:00:08;98666.66;;;7.93;84.29
8051;BME280;4068;42.158;24.732;2023-03-15T08:02:36;98656.25;;;8.12;82.45
8051;BME280;4068;42.158;24.732;2023-03-15T08:05:01;98656.38;;;8.63;81.39
8051;BME280;4068;42.158;24.732;2023-03-15T08:07:28;98676.00;;;9.01;78.73
8051;BME280;4068;42.158;24.732;2023-03-15T08:09:54;98665.47;;;9.30;76.03
8051;BME280;4068;42.158;24.732;2023-03-15T08:12:22;98657.41;;;9.42;75.60
8051;BME280;4068;42.158;24.732;2023-03-15T08:14:48;98644.44;;;9.39;75.41
8051;BME280;4068;42.158;24.732;2023-03-15T08:17:14;98619.53;;;9.51;75.04
8051;BME280;4068;42.158;24.732;2023-03-15T08:19:40;98607.28;;;9.21;74.14
8051;BME280;4068;42.158;24.732;2023-03-15T08:22:06;98623.56;;;9.26;73.47
8051;BME280;4068;42.158;24.732;2023-03-15T08:24:32;98619.75;;;8.99;77.21
8051;BME280;4068;42.158;24.732;2023-03-15T08:26:58;98619.75;;;8.99;75.54
8051;BME280;4068;42.158;24.732;2023-03-15T08:29:23;98591.06;;;8.85;76.67
8051;BME280;4068;42.158;24.732;2023-03-15T08:31:48;98601.34;;;8.88;77.71
8051;BME280;4068;42.158;24.732;2023-03-15T08:34:14;98554.44;;;8.39;77.47
8051;BME280;4068;42.158;24.732;2023-03-15T08:36:40;98589.06;;;8.67;78.30
8051;BME280;4068;42.158;24.732;2023-03-15T08:39:06;98602.78;;;9.02;77.13
8051;BME280;4068;42.158;24.732;2023-03-15T08:41:33;98579.78;;;8.83;76.11
8051;BME280;4068;42.158;24.732;2023-03-15T08:43:58;98596.13;;;9.27;74.62
8051;BME280;4068;42.158;24.732;2023-03-15T08:46:25;98593.75;;;9.53;74.50
8051;BME280;4068;42.158;24.732;2023-03-15T08:48:51;98584.84;;;9.44;73.80
8051;BME280;4068;42.158;24.732;2023-03-15T08:51:16;98593.06;;;9.61;74.33
8051;BME280;4068;42.158;24.732;2023-03-15T08:53:41;98591.25;;;9.71;71.50
8051;BME280;4068;42.158;24.732;2023-03-15T08:56:07;98602.56;;;9.63;72.11
8051;BME280;4068;42.158;24.732;2023-03-15T08:58:33;98600.44;;;9.38;75.26
8051;BME280;4068;42.158;24.732;2023-03-15T09:00:59;98605.47;;;9.50;73.95
8051;BME280;4068;42.158;24.732;2023-03-15T09:03:24;98600.16;;;9.60;71.68
8051;BME280;4068;42.158;24.732;2023-03-15T09:05:55;98611.38;;;10.11;70.32
8051;BME280;4068;42.158;24.732;2023-03-15T09:08:20;98600.13;;;9.90;67.66
8051;BME280;4068;42.158;24.732;2023-03-15T09:10:46;98597.16;;;10.12;68.49
8051;BME280;4068;42.158;24.732;2023-03-15T09:13:11;98592.19;;;10.47;65.52
8051;BME280;4068;42.158;24.732;2023-03-15T09:15:36;98579.22;;;10.44;67.73
8051;BME280;4068;42.158;24.732;2023-03-15T09:18:02;98573.13;;;11.07;64.69
8051;BME280;4068;42.158;24.732;2023-03-15T09:20:27;98560.56;;;11.27;61.46
8051;BME280;4068;42.158;24.732;2023-03-15T09:22:55;98575.19;;;11.49;61.42
8051;BME280;4068;42.158;24.732;2023-03-15T09:25:22;98561.03;;;11.40;60.46
8051;BME280;4068;42.158;24.732;2023-03-15T09:27:48;98568.66;;;10.90;61.83
8051;BME280;4068;42.158;24.732;2023-03-15T09:30:14;98562.59;;;10.97;62.38
8051;BME280;4068;42.158;24.732;2023-03-15T09:32:40;98545.09;;;11.22;60.61
8051;BME280;4068;42.158;24.732;2023-03-15T09:35:08;98561.69;;;11.61;60.61
8051;BME280;4068;42.158;24.732;2023-03-15T09:37:34;98572.06;;;11.54;61.76
8051;BME280;4068;42.158;24.732;2023-03-15T09:40:00;98558.00;;;11.98;59.47
8051;BME280;4068;42.158;24.732;2023-03-15T09:51:16;98536.44;;;12.94;54.57
8051;BME280;4068;42.158;24.732;2023-03-15T09:53:54;98513.94;;;12.64;54.13
8051;BME280;4068;42.158;24.732;2023-03-15T09:56:26;98543.97;;;13.07;55.22
8051;BME280;4068;42.158;24.732;2023-03-15T09:58:58;98543.84;;;13.42;53.77
8051;BME280;4068;42.158;24.732;2023-03-15T10:01:37;98510.34;;;13.06;53.17
8051;BME280;4068;42.158;24.732;2023-03-15T10:04:32;98541.69;;;13.45;52.66
8051;BME280;4068;42.158;24.732;2023-03-15T10:07:05;98529.00;;;12.47;55.50
8051;BME280;4068;42.158;24.732;2023-03-15T10:09:33;98522.34;;;12.43;56.67
8051;BME280;4068;42.158;24.732;2023-03-15T10:12:09;98514.84;;;13.22;54.07
8051;BME280;4068;42.158;24.732;2023-03-15T10:20:28;98512.00;;;13.24;54.08
8051;BME280;4068;42.158;24.732;2023-03-15T10:25:39;98503.00;;;12.92;54.47
8051;BME280;4068;42.158;24.732;2023-03-15T10:28:09;98519.72;;;13.35;53.82
8051;BME280;4068;42.158;24.732;2023-03-15T10:30:40;98522.34;;;13.27;53.01
8051;BME280;4068;42.158;24.732;2023-03-15T10:33:34;98499.03;;;13.21;51.84
8051;BME280;4068;42.158;24.732;2023-03-15T10:36:02;98478.75;;;13.28;52.80
8051;BME280;4068;42.158;24.732;2023-03-15T10:38:35;98507.38;;;13.67;52.51
8051;BME280;4068;42.158;24.732;2023-03-15T10:41:05;98502.00;;;13.84;52.61
8051;BME280;4068;42.158;24.732;2023-03-15T10:43:32;98503.75;;;14.16;51.61
8051;BME280;4068;42.158;24.732;2023-03-15T10:48:32;98477.97;;;14.48;49.87
8051;BME280;4068;42.158;24.732;2023-03-15T10:51:17;98486.63;;;14.81;48.24
8051;BME280;4068;42.158;24.732;2023-03-15T10:56:22;98456.34;;;14.97;46.76
8051;BME280;4068;42.158;24.732;2023-03-15T10:58:52;98454.97;;;14.78;46.84
8051;BME280;4068;42.158;24.732;2023-03-15T11:01:36;98441.28;;;14.81;47.87
8051;BME280;4068;42.158;24.732;2023-03-15T11:06:51;98466.09;;;14.50;47.50
8051;BME280;4068;42.158;24.732;2023-03-15T11:09:25;98455.34;;;14.75;47.63
8051;BME280;4068;42.158;24.732;2023-03-15T11:11:59;98467.50;;;15.01;46.11
8051;BME280;4068;42.158;24.732;2023-03-15T11:14:32;98468.38;;;14.70;47.71
8051;BME280;4068;42.158;24.732;2023-03-15T11:16:58;98470.97;;;15.25;47.21
8051;BME280;4068;42.158;24.732;2023-03-15T11:19:30;98441.06;;;15.06;46.70
8051;BME280;4068;42.158;24.732;2023-03-15T11:21:57;98451.66;;;15.38;46.17
8051;BME280;4068;42.158;24.732;2023-03-15T11:24:32;98465.78;;;15.46;46.27
8051;BME280;4068;42.158;24.732;2023-03-15T11:27:01;98440.91;;;15.46;45.38
8051;BME280;4068;42.158;24.732;2023-03-15T11:29:32;98455.81;;;15.40;46.18
8051;BME280;4068;42.158;24.732;2023-03-15T11:31:59;98451.28;;;15.26;45.17
8051;BME280;4068;42.158;24.732;2023-03-15T11:34:43;98447.72;;;15.48;45.80
8051;BME280;4068;42.158;24.732;2023-03-15T11:37:18;98452.69;;;15.36;46.05
8051;BME280;4068;42.158;24.732;2023-03-15T11:39:52;98453.38;;;15.68;44.67
8051;BME280;4068;42.158;24.732;2023-03-15T11:42:34;98452.25;;;15.63;45.47
8051;BME280;4068;42.158;24.732;2023-03-15T11:45:15;98446.78;;;15.79;45.34
8051;BME280;4068;42.158;24.732;2023-03-15T11:47:48;98424.91;;;15.76;44.60
8051;BME280;4068;42.158;24.732;2023-03-15T11:50:16;98445.09;;;15.93;44.62
8051;BME280;4068;42.158;24.732;2023-03-15T11:52:42;98437.38;;;15.98;44.37
8051;BME280;4068;42.158;24.732;2023-03-15T11:55:18;98434.53;;;15.85;44.46
8051;BME280;4068;42.158;24.732;2023-03-15T11:57:47;98423.66;;;15.86;44.46
8051;BME280;4068;42.158;24.732;2023-03-15T12:02:52;98422.03;;;15.62;45.89
8051;BME280;4068;42.158;24.732;2023-03-15T12:08:46;98420.28;;;15.40;46.57
8051;BME280;4068;42.158;24.732;2023-03-15T12:16:21;98408.22;;;15.44;46.86
8051;BME280;4068;42.158;24.732;2023-03-15T12:18:48;98376.50;;;15.26;46.51
8051;BME280;4068;42.158;24.732;2023-03-15T12:21:22;98405.53;;;15.59;46.53
8051;BME280;4068;42.158;24.732;2023-03-15T12:24:05;98388.84;;;15.42;45.71
8051;BME280;4068;42.158;24.732;2023-03-15T12:26:45;98404.63;;;15.51;46.28
8051;BME280;4068;42.158;24.732;2023-03-15T12:29:29;98397.44;;;15.52;45.44
8051;BME280;4068;42.158;24.732;2023-03-15T12:34:51;98395.22;;;15.56;44.84
8051;BME280;4068;42.158;24.732;2023-03-15T12:37:41;98391.44;;;15.50;44.40
8051;BME280;4068;42.158;24.732;2023-03-15T12:53:08;98371.56;;;15.52;44.24
8051;BME280;4068;42.158;24.732;2023-03-15T12:55:37;98351.81;;;15.39;44.71
8051;BME280;4068;42.158;24.732;2023-03-15T12:58:05;98366.47;;;15.43;45.04
8051;BME280;4068;42.158;24.732;2023-03-15T13:00:34;98382.13;;;15.46;44.57
8051;BME280;4068;42.158;24.732;2023-03-15T13:03:07;98385.53;;;15.40;43.66
8051;BME280;4068;42.158;24.732;2023-03-15T13:19:46;98365.94;;;13.85;46.88
8051;BME280;4068;42.158;24.732;2023-03-15T13:22:23;98361.47;;;13.86;47.48
8051;BME280;4068;42.158;24.732;2023-03-15T13:24:57;98366.09;;;13.92;47.78
8051;BME280;4068;42.158;24.732;2023-03-15T13:33:18;98331.78;;;14.20;47.33
8051;BME280;4068;42.158;24.732;2023-03-15T13:38:30;98315.88;;;14.35;47.16
8051;BME280;4068;42.158;24.732;2023-03-15T13:40:58;98355.94;;;14.73;46.34
8051;BME280;4068;42.158;24.732;2023-03-15T13:43:29;98344.03;;;14.84;45.40
8051;BME280;4068;42.158;24.732;2023-03-15T13:45:58;98329.81;;;14.83;44.90
8051;BME280;4068;42.158;24.732;2023-03-15T13:48:29;98349.50;;;15.06;44.42
8051;BME280;4068;42.158;24.732;2023-03-15T13:51:07;98328.88;;;15.14;44.37
8051;BME280;4068;42.158;24.732;2023-03-15T13:53:35;98345.25;;;15.26;44.22
8051;BME280;4068;42.158;24.732;2023-03-15T13:56:05;98342.25;;;15.44;43.83
8051;BME280;4068;42.158;24.732;2023-03-15T13:58:32;98348.97;;;15.55;43.67
8051;BME280;4068;42.158;24.732;2023-03-15T14:00:59;98351.09;;;15.15;44.19
8051;BME280;4068;42.158;24.732;2023-03-15T14:03:26;98350.97;;;15.08;45.00
8051;BME280;4068;42.158;24.732;2023-03-15T14:05:54;98317.00;;;14.64;44.96
8051;BME280;4068;42.158;24.732;2023-03-15T14:11:00;98299.28;;;14.48;45.82
8051;BME280;4068;42.158;24.732;2023-03-15T14:16:01;98332.44;;;13.91;48.20
8051;BME280;4068;42.158;24.732;2023-03-15T14:21:02;98334.38;;;13.74;49.08
8051;BME280;4068;42.158;24.732;2023-03-15T14:23:30;98307.97;;;13.56;49.15
8051;BME280;4068;42.158;24.732;2023-03-15T14:26:18;98329.94;;;13.89;48.78
8051;BME280;4068;42.158;24.732;2023-03-15T14:28:49;98329.56;;;14.01;48.10
8051;BME280;4068;42.158;24.732;2023-03-15T14:31:27;98322.13;;;14.19;47.98
8051;BME280;4068;42.158;24.732;2023-03-15T14:33:56;98332.28;;;14.24;47.56
8051;BME280;4068;42.158;24.732;2023-03-15T14:36:51;98337.94;;;14.21;47.49
8051;BME280;4068;42.158;24.732;2023-03-15T14:39:30;98342.81;;;14.40;47.55
8051;BME280;4068;42.158;24.732;2023-03-15T14:41:56;98338.44;;;14.47;46.81
8051;BME280;4068;42.158;24.732;2023-03-15T14:44:21;98329.66;;;14.39;46.92